sensor_id;sensor_type;location;lat;lon;timestamp;P1;durP1;ratioP1;P2;durP2;ratioP2
72156;SDS011;60035;52.122;5.406;2023-09-07T00:01:32;10.90;;;5.05;;
72156;SDS011;60035;52.122;5.406;2023-09-07T00:04:00;9.48;;;5.65;;
72156;SDS011;60035;52.122;5.406;2023-09-07T00:06:27;10.40;;;5.18;;
72156;SDS011;60035;52.122;5.406;2023-09-07T00:08:53;9.82;;;4.60;;
72156;SDS011;60035;52.122;5.406;2023-09-07T00:11:20;8.30;;;4.57;;
72156;SDS011;60035;52.122;5.406;2023-09-07T00:13:46;9.80;;;4.55;;
72156;SDS011;60035;52.122;5.406;2023-09-07T00:16:13;8.65;;;4.53;;
72156;SDS011;60035;52.122;5.406;2023-09-07T00:18:41;8.00;;;4.63;;
72156;SDS011;60035;52.122;5.406;2023-09-07T00:21:07;9.48;;;4.80;;
72156;SDS011;60035;52.122;5.406;2023-09-07T00:23:35;10.05;;;5.00;;
72156;SDS011;60035;52.122;5.406;2023-09-07T00:26:01;9.40;;;5.00;;
72156;SDS011;60035;52.122;5.406;2023-09-07T00:28:28;9.13;;;5.10;;
72156;SDS011;60035;52.122;5.406;2023-09-07T00:30:55;9.65;;;4.57;;
72156;SDS011;60035;52.122;5.406;2023-09-07T00:33:22;8.90;;;4.88;;
72156;SDS011;60035;52.122;5.406;2023-09-07T00:35:48;8.93;;;4.95;;
72156;SDS011;60035;52.122;5.406;2023-09-07T00:38:15;8.13;;;4.50;;
72156;SDS011;60035;52.122;5.406;2023-09-07T00:40:42;8.68;;;4.20;;
72156;SDS011;60035;52.122;5.406;2023-09-07T00:43:11;9.40;;;4.57;;
72156;SDS011;60035;52.122;5.406;2023-09-07T00:45:38;9.07;;;4.75;;
72156;SDS011;60035;52.122;5.406;2023-09-07T00:48:05;11.00;;;4.75;;
72156;SDS011;60035;52.122;5.406;2023-09-07T00:50:32;9.30;;;4.25;;
72156;SDS011;60035;52.122;5.406;2023-09-07T00:52:59;10.45;;;4.28;;
72156;SDS011;60035;52.122;5.406;2023-09-07T00:55:27;7.95;;;4.57;;
72156;SDS011;60035;52.122;5.406;2023-09-07T00:57:55;8.07;;;4.35;;
72156;SDS011;60035;52.122;5.406;2023-09-07T01:00:22;7.32;;;4.00;;
72156;SDS011;60035;52.122;5.406;2023-09-07T01:02:48;7.95;;;4.40;;
72156;SDS011;60035;52.122;5.406;2023-09-07T01:05:15;8.55;;;4.03;;
72156;SDS011;60035;52.122;5.406;2023-09-07T01:07:46;7.63;;;4.10;;
72156;SDS011;60035;52.122;5.406;2023-09-07T01:10:16;8.25;;;4.35;;
72156;SDS011;60035;52.122;5.406;2023-09-07T01:12:44;8.13;;;4.05;;
72156;SDS011;60035;52.122;5.406;2023-09-07T01:15:11;8.88;;;4.70;;
72156;SDS011;60035;52.122;5.406;2023-09-07T01:17:38;9.00;;;4.75;;
72156;SDS011;60035;52.122;5.406;2023-09-07T01:20:05;9.95;;;4.90;;
72156;SDS011;60035;52.122;5.406;2023-09-07T01:22:37;10.88;;;4.32;;
72156;SDS011;60035;52.122;5.406;2023-09-07T01:25:05;8.95;;;4.35;;
72156;SDS011;60035;52.122;5.406;2023-09-07T01:27:33;8.40;;;4.60;;
72156;SDS011;60035;52.122;5.406;2023-09-07T01:30:00;8.40;;;4.97;;
72156;SDS011;60035;52.122;5.406;2023-09-07T01:32:29;9.10;;;4.45;;
72156;SDS011;60035;52.122;5.406;2023-09-07T01:34:56;9.45;;;4.63;;
72156;SDS011;60035;52.122;5.406;2023-09-07T01:37:24;8.43;;;4.93;;
72156;SDS011;60035;52.122;5.406;2023-09-07T01:39:51;8.57;;;4.90;;
72156;SDS011;60035;52.122;5.406;2023-09-07T01:42:18;9.60;;;4.78;;
72156;SDS011;60035;52.122;5.406;2023-09-07T01:44:44;9.15;;;4.68;;
72156;SDS011;60035;52.122;5.406;2023-09-07T01:47:11;7.80;;;4.10;;
72156;SDS011;60035;52.122;5.406;2023-09-07T01:49:38;8.73;;;4.18;;
72156;SDS011;60035;52.122;5.406;2023-09-07T01:52:05;7.53;;;4.22;;
72156;SDS011;60035;52.122;5.406;2023-09-07T01:54:31;8.00;;;4.60;;
72156;SDS011;60035;52.122;5.406;2023-09-07T01:56:58;8.45;;;4.43;;
72156;SDS011;60035;52.122;5.406;2023-09-07T01:59:25;10.30;;;4.95;;
72156;SDS011;60035;52.122;5.406;2023-09-07T02:01:52;8.25;;;4.70;;
72156;SDS011;60035;52.122;5.406;2023-09-07T02:04:19;8.63;;;4.60;;
72156;SDS011;60035;52.122;5.406;2023-09-07T02:06:45;8.60;;;4.60;;
72156;SDS011;60035;52.122;5.406;2023-09-07T02:09:12;8.82;;;4.78;;
72156;SDS011;60035;52.122;5.406;2023-09-07T02:11:38;9.82;;;4.50;;
72156;SDS011;60035;52.122;5.406;2023-09-07T02:14:06;10.82;;;5.32;;
72156;SDS011;60035;52.122;5.406;2023-09-07T02:16:33;8.63;;;5.15;;
72156;SDS011;60035;52.122;5.406;2023-09-07T02:19:03;9.10;;;5.18;;
72156;SDS011;60035;52.122;5.406;2023-09-07T02:21:31;7.07;;;4.22;;
72156;SDS011;60035;52.122;5.406;2023-09-07T02:23:57;7.72;;;4.40;;
72156;SDS011;60035;52.122;5.406;2023-09-07T02:26:24;7.15;;;3.92;;
72156;SDS011;60035;52.122;5.406;2023-09-07T02:28:51;7.90;;;4.68;;
72156;SDS011;60035;52.122;5.406;2023-09-07T02:31:18;9.55;;;4.80;;
72156;SDS011;60035;52.122;5.406;2023-09-07T02:33:44;8.13;;;4.15;;
72156;SDS011;60035;52.122;5.406;2023-09-07T02:36:11;9.82;;;4.88;;
72156;SDS011;60035;52.122;5.406;2023-09-07T02:38:40;9.40;;;4.68;;
72156;SDS011;60035;52.122;5.406;2023-09-07T02:41:07;7.45;;;4.15;;
72156;SDS011;60035;52.122;5.406;2023-09-07T02:43:34;8.93;;;4.50;;
72156;SDS011;60035;52.122;5.406;2023-09-07T02:46:01;8.18;;;4.30;;
72156;SDS011;60035;52.122;5.406;2023-09-07T02:48:27;8.15;;;4.30;;
72156;SDS011;60035;52.122;5.406;2023-09-07T02:50:54;9.18;;;4.30;;
72156;SDS011;60035;52.122;5.406;2023-09-07T02:53:20;7.30;;;4.25;;
72156;SDS011;60035;52.122;5.406;2023-09-07T02:55:47;8.23;;;4.45;;
72156;SDS011;60035;52.122;5.406;2023-09-07T02:58:14;7.40;;;3.92;;
72156;SDS011;60035;52.122;5.406;2023-09-07T03:00:41;8.25;;;4.00;;
72156;SDS011;60035;52.122;5.406;2023-09-07T03:03:13;8.30;;;4.40;;
72156;SDS011;60035;52.122;5.406;2023-09-07T03:05:40;8.18;;;4.95;;
72156;SDS011;60035;52.122;5.406;2023-09-07T03:08:08;8.15;;;4.70;;
72156;SDS011;60035;52.122;5.406;2023-09-07T03:10:35;9.70;;;4.88;;
72156;SDS011;60035;52.122;5.406;2023-09-07T03:13:02;8.50;;;4.07;;
72156;SDS011;60035;52.122;5.406;2023-09-07T03:15:29;8.90;;;4.32;;
72156;SDS011;60035;52.122;5.406;2023-09-07T03:17:56;9.20;;;4.10;;
72156;SDS011;60035;52.122;5.406;2023-09-07T03:20:23;10.48;;;4.95;;
72156;SDS011;60035;52.122;5.406;2023-09-07T03:22:49;8.10;;;4.78;;
72156;SDS011;60035;52.122;5.406;2023-09-07T03:25:16;8.10;;;4.30;;
72156;SDS011;60035;52.122;5.406;2023-09-07T03:27:43;8.48;;;4.30;;
72156;SDS011;60035;52.122;5.406;2023-09-07T03:30:09;10.15;;;5.55;;
72156;SDS011;60035;52.122;5.406;2023-09-07T03:32:37;8.88;;;4.80;;
72156;SDS011;60035;52.122;5.406;2023-09-07T03:35:03;12.45;;;5.38;;
72156;SDS011;60035;52.122;5.406;2023-09-07T03:37:36;9.27;;;5.22;;
72156;SDS011;60035;52.122;5.406;2023-09-07T03:40:04;8.52;;;4.93;;
72156;SDS011;60035;52.122;5.406;2023-09-07T03:42:32;11.25;;;5.60;;
72156;SDS011;60035;52.122;5.406;2023-09-07T03:44:59;10.15;;;5.22;;
72156;SDS011;60035;52.122;5.406;2023-09-07T03:47:26;8.55;;;4.38;;
72156;SDS011;60035;52.122;5.406;2023-09-07T03:49:55;9.88;;;5.47;;
72156;SDS011;60035;52.122;5.406;2023-09-07T03:52:26;9.60;;;5.40;;
72156;SDS011;60035;52.122;5.406;2023-09-07T03:54:53;9.23;;;5.20;;
72156;SDS011;60035;52.122;5.406;2023-09-07T03:57:21;8.55;;;4.72;;
72156;SDS011;60035;52.122;5.406;2023-09-07T03:59:48;9.15;;;5.00;;
72156;SDS011;60035;52.122;5.406;2023-09-07T04:02:14;9.38;;;4.90;;
72156;SDS011;60035;52.122;5.406;2023-09-07T04:04:43;9.93;;;5.70;;
72156;SDS011;60035;52.122;5.406;2023-09-07T04:07:13;10.05;;;5.25;;
72156;SDS011;60035;52.122;5.406;2023-09-07T04:09:40;10.13;;;5.53;;
72156;SDS011;60035;52.122;5.406;2023-09-07T04:12:09;9.05;;;4.90;;
72156;SDS011;60035;52.122;5.406;2023-09-07T04:14:36;7.88;;;4.13;;
72156;SDS011;60035;52.122;5.406;2023-09-07T04:17:04;8.88;;;4.78;;
72156;SDS011;60035;52.122;5.406;2023-09-07T04:19:31;9.43;;;5.22;;
72156;SDS011;60035;52.122;5.406;2023-09-07T04:21:58;8.90;;;5.45;;
72156;SDS011;60035;52.122;5.406;2023-09-07T04:24:24;8.65;;;5.32;;
72156;SDS011;60035;52.122;5.406;2023-09-07T04:26:51;9.32;;;5.07;;
72156;SDS011;60035;52.122;5.406;2023-09-07T04:29:18;10.98;;;5.85;;
72156;SDS011;60035;52.122;5.406;2023-09-07T04:31:44;10.40;;;5.32;;
72156;SDS011;60035;52.122;5.406;2023-09-07T04:34:11;9.30;;;5.05;;
72156;SDS011;60035;52.122;5.406;2023-09-07T04:36:37;10.48;;;5.05;;
72156;SDS011;60035;52.122;5.406;2023-09-07T04:39:05;8.43;;;4.78;;
72156;SDS011;60035;52.122;5.406;2023-09-07T04:41:32;9.52;;;4.95;;
72156;SDS011;60035;52.122;5.406;2023-09-07T04:43:58;9.38;;;5.25;;
72156;SDS011;60035;52.122;5.406;2023-09-07T04:46:25;11.73;;;5.75;;
72156;SDS011;60035;52.122;5.406;2023-09-07T04:48:51;8.88;;;5.03;;
72156;SDS011;60035;52.122;5.406;2023-09-07T04:51:18;9.57;;;5.20;;
72156;SDS011;60035;52.122;5.406;2023-09-07T04:53:45;9.00;;;4.90;;
72156;SDS011;60035;52.122;5.406;2023-09-07T04:56:12;8.10;;;4.90;;
72156;SDS011;60035;52.122;5.406;2023-09-07T04:58:39;10.40;;;4.82;;
72156;SDS011;60035;52.122;5.406;2023-09-07T05:01:06;9.88;;;5.40;;
72156;SDS011;60035;52.122;5.406;2023-09-07T05:03:35;8.95;;;5.40;;
72156;SDS011;60035;52.122;5.406;2023-09-07T05:06:03;10.00;;;5.72;;
72156;SDS011;60035;52.122;5.406;2023-09-07T05:08:30;9.55;;;5.28;;
72156;SDS011;60035;52.122;5.406;2023-09-07T05:10:59;10.45;;;5.53;;
72156;SDS011;60035;52.122;5.406;2023-09-07T05:13:26;11.77;;;5.35;;
72156;SDS011;60035;52.122;5.406;2023-09-07T05:15:54;10.43;;;5.10;;
72156;SDS011;60035;52.122;5.406;2023-09-07T05:18:22;8.48;;;4.93;;
72156;SDS011;60035;52.122;5.406;2023-09-07T05:20:48;9.45;;;4.82;;
72156;SDS011;60035;52.122;5.406;2023-09-07T05:23:18;8.98;;;5.15;;
72156;SDS011;60035;52.122;5.406;2023-09-07T05:25:46;11.38;;;5.43;;
72156;SDS011;60035;52.122;5.406;2023-09-07T05:28:14;10.63;;;5.72;;
72156;SDS011;60035;52.122;5.406;2023-09-07T05:30:41;10.52;;;5.57;;
72156;SDS011;60035;52.122;5.406;2023-09-07T05:33:13;10.50;;;5.88;;
72156;SDS011;60035;52.122;5.406;2023-09-07T05:35:41;11.13;;;5.80;;
72156;SDS011;60035;52.122;5.406;2023-09-07T05:38:08;10.88;;;5.95;;
72156;SDS011;60035;52.122;5.406;2023-09-07T05:40:36;11.20;;;5.45;;
72156;SDS011;60035;52.122;5.406;2023-09-07T05:43:04;8.73;;;4.82;;
72156;SDS011;60035;52.122;5.406;2023-09-07T05:45:35;9.48;;;5.28;;
72156;SDS011;60035;52.122;5.406;2023-09-07T05:48:03;8.13;;;4.85;;
72156;SDS011;60035;52.122;5.406;2023-09-07T05:50:34;10.70;;;4.43;;
72156;SDS011;60035;52.122;5.406;2023-09-07T05:53:02;9.05;;;4.95;;
72156;SDS011;60035;52.122;5.406;2023-09-07T05:55:29;10.85;;;5.35;;
72156;SDS011;60035;52.122;5.406;2023-09-07T05:57:56;9.60;;;5.50;;
72156;SDS011;60035;52.122;5.406;2023-09-07T06:00:24;10.10;;;5.38;;
72156;SDS011;60035;52.122;5.406;2023-09-07T06:02:51;9.30;;;5.25;;
72156;SDS011;60035;52.122;5.406;2023-09-07T06:05:18;9.32;;;4.90;;
72156;SDS011;60035;52.122;5.406;2023-09-07T06:07:44;10.00;;;5.22;;
72156;SDS011;60035;52.122;5.406;2023-09-07T06:10:11;9.77;;;5.30;;
72156;SDS011;60035;52.122;5.406;2023-09-07T06:12:38;9.35;;;5.10;;
72156;SDS011;60035;52.122;5.406;2023-09-07T06:15:05;8.23;;;4.97;;
72156;SDS011;60035;52.122;5.406;2023-09-07T06:17:32;9.80;;;5.80;;
72156;SDS011;60035;52.122;5.406;2023-09-07T06:19:59;10.57;;;5.50;;
72156;SDS011;60035;52.122;5.406;2023-09-07T06:22:26;8.45;;;4.97;;
72156;SDS011;60035;52.122;5.406;2023-09-07T06:24:52;10.10;;;5.43;;
72156;SDS011;60035;52.122;5.406;2023-09-07T06:27:19;10.48;;;5.88;;
72156;SDS011;60035;52.122;5.406;2023-09-07T06:29:45;10.70;;;6.35;;
72156;SDS011;60035;52.122;5.406;2023-09-07T06:32:12;12.35;;;7.35;;
72156;SDS011;60035;52.122;5.406;2023-09-07T06:34:39;13.40;;;8.05;;
72156;SDS011;60035;52.122;5.406;2023-09-07T06:37:06;12.82;;;8.00;;
72156;SDS011;60035;52.122;5.406;2023-09-07T06:39:33;12.38;;;7.10;;
72156;SDS011;60035;52.122;5.406;2023-09-07T06:41:59;12.57;;;8.25;;
72156;SDS011;60035;52.122;5.406;2023-09-07T06:44:26;15.52;;;8.35;;
72156;SDS011;60035;52.122;5.406;2023-09-07T06:46:52;13.95;;;8.23;;
72156;SDS011;60035;52.122;5.406;2023-09-07T06:49:19;12.63;;;7.45;;
72156;SDS011;60035;52.122;5.406;2023-09-07T06:51:45;11.80;;;7.43;;
72156;SDS011;60035;52.122;5.406;2023-09-07T06:54:13;17.88;;;8.93;;
72156;SDS011;60035;52.122;5.406;2023-09-07T06:56:40;14.63;;;8.30;;
72156;SDS011;60035;52.122;5.406;2023-09-07T06:59:06;15.40;;;7.85;;
72156;SDS011;60035;52.122;5.406;2023-09-07T07:01:33;15.32;;;7.47;;
72156;SDS011;60035;52.122;5.406;2023-09-07T07:03:59;14.35;;;8.18;;
72156;SDS011;60035;52.122;5.406;2023-09-07T07:06:26;15.20;;;8.73;;
72156;SDS011;60035;52.122;5.406;2023-09-07T07:08:53;12.65;;;8.20;;
72156;SDS011;60035;52.122;5.406;2023-09-07T07:11:19;14.32;;;7.93;;
72156;SDS011;60035;52.122;5.406;2023-09-07T07:13:46;14.60;;;8.18;;
72156;SDS011;60035;52.122;5.406;2023-09-07T07:16:12;12.45;;;8.15;;
72156;SDS011;60035;52.122;5.406;2023-09-07T07:18:40;12.60;;;7.53;;
72156;SDS011;60035;52.122;5.406;2023-09-07T07:21:09;13.02;;;8.25;;
72156;SDS011;60035;52.122;5.406;2023-09-07T07:23:36;14.50;;;8.27;;
72156;SDS011;60035;52.122;5.406;2023-09-07T07:26:02;13.85;;;8.18;;
72156;SDS011;60035;52.122;5.406;2023-09-07T07:28:30;13.45;;;8.18;;
72156;SDS011;60035;52.122;5.406;2023-09-07T07:30:56;12.88;;;8.25;;
72156;SDS011;60035;52.122;5.406;2023-09-07T07:33:23;12.73;;;8.15;;
72156;SDS011;60035;52.122;5.406;2023-09-07T07:35:50;13.45;;;8.18;;
72156;SDS011;60035;52.122;5.406;2023-09-07T07:38:16;17.00;;;9.13;;
72156;SDS011;60035;52.122;5.406;2023-09-07T07:40:43;14.10;;;8.23;;
72156;SDS011;60035;52.122;5.406;2023-09-07T07:43:11;14.02;;;8.23;;
72156;SDS011;60035;52.122;5.406;2023-09-07T07:45:39;14.80;;;8.52;;
72156;SDS011;60035;52.122;5.406;2023-09-07T07:48:06;13.43;;;8.30;;
72156;SDS011;60035;52.122;5.406;2023-09-07T07:50:38;15.48;;;8.65;;
72156;SDS011;60035;52.122;5.406;2023-09-07T07:53:08;15.13;;;7.75;;
72156;SDS011;60035;52.122;5.406;2023-09-07T07:55:36;14.90;;;8.25;;
72156;SDS011;60035;52.122;5.406;2023-09-07T07:58:07;13.80;;;8.82;;
72156;SDS011;60035;52.122;5.406;2023-09-07T08:00:35;13.32;;;8.10;;
72156;SDS011;60035;52.122;5.406;2023-09-07T08:03:02;15.07;;;8.95;;
72156;SDS011;60035;52.122;5.406;2023-09-07T08:05:29;12.27;;;7.65;;
72156;SDS011;60035;52.122;5.406;2023-09-07T08:07:58;12.75;;;8.45;;
72156;SDS011;60035;52.122;5.406;2023-09-07T08:10:25;12.40;;;7.90;;
72156;SDS011;60035;52.122;5.406;2023-09-07T08:12:54;12.60;;;8.32;;
72156;SDS011;60035;52.122;5.406;2023-09-07T08:15:21;15.48;;;8.60;;
72156;SDS011;60035;52.122;5.406;2023-09-07T08:17:48;14.20;;;8.07;;
72156;SDS011;60035;52.122;5.406;2023-09-07T08:20:15;13.25;;;8.35;;
72156;SDS011;60035;52.122;5.406;2023-09-07T08:22:42;13.85;;;8.00;;
72156;SDS011;60035;52.122;5.406;2023-09-07T08:25:09;14.40;;;7.43;;
72156;SDS011;60035;52.122;5.406;2023-09-07T08:27:42;12.93;;;7.30;;
72156;SDS011;60035;52.122;5.406;2023-09-07T08:30:13;12.68;;;6.57;;
72156;SDS011;60035;52.122;5.406;2023-09-07T08:32:42;11.95;;;6.65;;
72156;SDS011;60035;52.122;5.406;2023-09-07T08:35:09;12.85;;;6.90;;
72156;SDS011;60035;52.122;5.406;2023-09-07T08:37:39;12.27;;;6.22;;
72156;SDS011;60035;52.122;5.406;2023-09-07T08:40:06;12.40;;;6.22;;
72156;SDS011;60035;52.122;5.406;2023-09-07T08:42:37;12.70;;;6.10;;
72156;SDS011;60035;52.122;5.406;2023-09-07T08:45:04;9.95;;;5.50;;
72156;SDS011;60035;52.122;5.406;2023-09-07T08:47:34;9.85;;;6.28;;
72156;SDS011;60035;52.122;5.406;2023-09-07T08:50:02;13.25;;;6.13;;
72156;SDS011;60035;52.122;5.406;2023-09-07T08:52:33;11.02;;;5.80;;
72156;SDS011;60035;52.122;5.406;2023-09-07T08:55:00;11.57;;;5.13;;
72156;SDS011;60035;52.122;5.406;2023-09-07T08:57:30;11.98;;;5.20;;
72156;SDS011;60035;52.122;5.406;2023-09-07T08:59:58;9.25;;;5.40;;
72156;SDS011;60035;52.122;5.406;2023-09-07T09:02:25;10.85;;;5.03;;
72156;SDS011;60035;52.122;5.406;2023-09-07T09:04:52;10.77;;;5.43;;
72156;SDS011;60035;52.122;5.406;2023-09-07T09:07:19;9.70;;;5.25;;
72156;SDS011;60035;52.122;5.406;2023-09-07T09:09:48;11.02;;;5.22;;
72156;SDS011;60035;52.122;5.406;2023-09-07T09:12:16;9.48;;;5.07;;
72156;SDS011;60035;52.122;5.406;2023-09-07T09:14:43;8.40;;;4.32;;
72156;SDS011;60035;52.122;5.406;2023-09-07T09:17:14;9.73;;;5.03;;
72156;SDS011;60035;52.122;5.406;2023-09-07T09:19:42;11.30;;;4.30;;
72156;SDS011;60035;52.122;5.406;2023-09-07T09:22:08;7.35;;;4.15;;
72156;SDS011;60035;52.122;5.406;2023-09-07T09:24:36;8.82;;;3.85;;
72156;SDS011;60035;52.122;5.406;2023-09-07T09:27:03;7.78;;;3.55;;
72156;SDS011;60035;52.122;5.406;2023-09-07T09:29:34;10.68;;;3.90;;
72156;SDS011;60035;52.122;5.406;2023-09-07T09:32:07;9.00;;;4.00;;
72156;SDS011;60035;52.122;5.406;2023-09-07T09:34:34;8.52;;;3.75;;
72156;SDS011;60035;52.122;5.406;2023-09-07T09:37:02;8.45;;;3.75;;
72156;SDS011;60035;52.122;5.406;2023-09-07T09:39:32;7.68;;;3.58;;
72156;SDS011;60035;52.122;5.406;2023-09-07T09:42:00;8.13;;;3.63;;
72156;SDS011;60035;52.122;5.406;2023-09-07T09:44:28;7.50;;;3.92;;
72156;SDS011;60035;52.122;5.406;2023-09-07T09:46:55;8.70;;;3.63;;
72156;SDS011;60035;52.122;5.406;2023-09-07T09:49:22;7.93;;;3.67;;
72156;SDS011;60035;52.122;5.406;2023-09-07T09:51:49;7.38;;;3.50;;
72156;SDS011;60035;52.122;5.406;2023-09-07T09:54:20;9.00;;;3.63;;
72156;SDS011;60035;52.122;5.406;2023-09-07T09:56:47;6.75;;;3.38;;
72156;SDS011;60035;52.122;5.406;2023-09-07T09:59:14;6.80;;;3.70;;
72156;SDS011;60035;52.122;5.406;2023-09-07T10:01:46;6.65;;;3.30;;
72156;SDS011;60035;52.122;5.406;2023-09-07T10:04:17;6.78;;;3.35;;
72156;SDS011;60035;52.122;5.406;2023-09-07T10:06:55;5.97;;;3.00;;
72156;SDS011;60035;52.122;5.406;2023-09-07T10:09:32;7.22;;;3.50;;
72156;SDS011;60035;52.122;5.406;2023-09-07T10:12:00;7.18;;;3.70;;
72156;SDS011;60035;52.122;5.406;2023-09-07T10:14:40;7.57;;;3.30;;
72156;SDS011;60035;52.122;5.406;2023-09-07T10:17:07;7.60;;;3.58;;
72156;SDS011;60035;52.122;5.406;2023-09-07T10:19:36;7.05;;;3.70;;
72156;SDS011;60035;52.122;5.406;2023-09-07T10:22:04;6.72;;;3.45;;
72156;SDS011;60035;52.122;5.406;2023-09-07T10:24:34;6.38;;;3.42;;
72156;SDS011;60035;52.122;5.406;2023-09-07T10:27:03;7.13;;;3.80;;
72156;SDS011;60035;52.122;5.406;2023-09-07T10:29:43;7.90;;;3.95;;
72156;SDS011;60035;52.122;5.406;2023-09-07T10:32:11;7.13;;;3.80;;
72156;SDS011;60035;52.122;5.406;2023-09-07T10:34:45;7.53;;;3.90;;
72156;SDS011;60035;52.122;5.406;2023-09-07T10:37:13;6.57;;;3.70;;
72156;SDS011;60035;52.122;5.406;2023-09-07T10:39:41;8.25;;;3.58;;
72156;SDS011;60035;52.122;5.406;2023-09-07T10:42:21;8.77;;;4.07;;
72156;SDS011;60035;52.122;5.406;2023-09-07T10:44:50;7.65;;;3.80;;
72156;SDS011;60035;52.122;5.406;2023-09-07T10:47:17;9.70;;;3.70;;
72156;SDS011;60035;52.122;5.406;2023-09-07T10:49:43;6.60;;;3.90;;
72156;SDS011;60035;52.122;5.406;2023-09-07T10:52:10;7.63;;;3.63;;
72156;SDS011;60035;52.122;5.406;2023-09-07T10:54:37;5.85;;;3.33;;
72156;SDS011;60035;52.122;5.406;2023-09-07T10:57:12;8.13;;;3.80;;
72156;SDS011;60035;52.122;5.406;2023-09-07T10:59:44;8.77;;;3.72;;
72156;SDS011;60035;52.122;5.406;2023-09-07T11:02:12;11.60;;;3.65;;
72156;SDS011;60035;52.122;5.406;2023-09-07T11:04:41;8.80;;;3.60;;
72156;SDS011;60035;52.122;5.406;2023-09-07T11:07:08;9.93;;;3.88;;
72156;SDS011;60035;52.122;5.406;2023-09-07T11:09:39;7.35;;;3.95;;
72156;SDS011;60035;52.122;5.406;2023-09-07T11:12:06;7.32;;;3.70;;
72156;SDS011;60035;52.122;5.406;2023-09-07T11:14:34;7.40;;;3.92;;
72156;SDS011;60035;52.122;5.406;2023-09-07T11:17:01;8.10;;;3.70;;
72156;SDS011;60035;52.122;5.406;2023-09-07T11:19:33;6.88;;;3.58;;
72156;SDS011;60035;52.122;5.406;2023-09-07T11:22:00;7.10;;;3.58;;
72156;SDS011;60035;52.122;5.406;2023-09-07T11:24:26;6.85;;;3.75;;
72156;SDS011;60035;52.122;5.406;2023-09-07T11:26:53;9.55;;;3.65;;
72156;SDS011;60035;52.122;5.406;2023-09-07T11:29:19;7.07;;;3.65;;
72156;SDS011;60035;52.122;5.406;2023-09-07T11:31:46;7.03;;;3.53;;
72156;SDS011;60035;52.122;5.406;2023-09-07T11:34:13;7.15;;;3.45;;
72156;SDS011;60035;52.122;5.406;2023-09-07T11:36:41;7.15;;;3.65;;
72156;SDS011;60035;52.122;5.406;2023-09-07T11:39:09;7.47;;;3.78;;
72156;SDS011;60035;52.122;5.406;2023-09-07T11:41:42;6.05;;;3.38;;
72156;SDS011;60035;52.122;5.406;2023-09-07T11:44:10;8.43;;;3.53;;
72156;SDS011;60035;52.122;5.406;2023-09-07T11:46:38;8.60;;;3.80;;
72156;SDS011;60035;52.122;5.406;2023-09-07T11:49:04;7.50;;;3.40;;
72156;SDS011;60035;52.122;5.406;2023-09-07T11:51:32;6.95;;;3.47;;
72156;SDS011;60035;52.122;5.406;2023-09-07T11:53:59;6.18;;;3.50;;
72156;SDS011;60035;52.122;5.406;2023-09-07T11:56:28;6.75;;;3.63;;
72156;SDS011;60035;52.122;5.406;2023-09-07T11:58:55;7.38;;;3.70;;
72156;SDS011;60035;52.122;5.406;2023-09-07T12:01:21;7.72;;;3.75;;
72156;SDS011;60035;52.122;5.406;2023-09-07T12:03:48;9.30;;;3.90;;
72156;SDS011;60035;52.122;5.406;2023-09-07T12:06:15;7.43;;;3.65;;
72156;SDS011;60035;52.122;5.406;2023-09-07T12:08:42;8.77;;;3.97;;
72156;SDS011;60035;52.122;5.406;2023-09-07T12:11:24;7.53;;;3.60;;
72156;SDS011;60035;52.122;5.406;2023-09-07T12:13:51;8.35;;;3.78;;
72156;SDS011;60035;52.122;5.406;2023-09-07T12:16:17;6.43;;;3.17;;
72156;SDS011;60035;52.122;5.406;2023-09-07T12:18:44;8.00;;;3.58;;
72156;SDS011;60035;52.122;5.406;2023-09-07T12:21:11;7.47;;;3.60;;
72156;SDS011;60035;52.122;5.406;2023-09-07T12:23:37;6.30;;;3.40;;
72156;SDS011;60035;52.122;5.406;2023-09-07T12:26:04;8.32;;;3.65;;
72156;SDS011;60035;52.122;5.406;2023-09-07T12:28:30;6.88;;;3.50;;
72156;SDS011;60035;52.122;5.406;2023-09-07T12:33:27;9.23;;;3.60;;
72156;SDS011;60035;52.122;5.406;2023-09-07T12:35:56;8.98;;;3.80;;
72156;SDS011;60035;52.122;5.406;2023-09-07T12:38:23;6.80;;;3.75;;
72156;SDS011;60035;52.122;5.406;2023-09-07T12:40:54;5.82;;;3.35;;
72156;SDS011;60035;52.122;5.406;2023-09-07T12:43:21;7.63;;;3.70;;
72156;SDS011;60035;52.122;5.406;2023-09-07T12:45:48;6.65;;;3.50;;
72156;SDS011;60035;52.122;5.406;2023-09-07T12:48:14;7.75;;;3.63;;
72156;SDS011;60035;52.122;5.406;2023-09-07T12:50:42;7.70;;;4.45;;
72156;SDS011;60035;52.122;5.406;2023-09-07T12:53:09;7.05;;;3.67;;
72156;SDS011;60035;52.122;5.406;2023-09-07T12:55:37;7.60;;;3.47;;
72156;SDS011;60035;52.122;5.406;2023-09-07T12:58:03;9.75;;;3.20;;
72156;SDS011;60035;52.122;5.406;2023-09-07T13:00:30;7.90;;;3.55;;
72156;SDS011;60035;52.122;5.406;2023-09-07T13:02:56;8.13;;;3.78;;
72156;SDS011;60035;52.122;5.406;2023-09-07T13:05:23;7.07;;;3.28;;
72156;SDS011;60035;52.122;5.406;2023-09-07T13:07:49;9.63;;;3.85;;
72156;SDS011;60035;52.122;5.406;2023-09-07T13:10:16;8.82;;;3.72;;
72156;SDS011;60035;52.122;5.406;2023-09-07T13:12:43;6.88;;;3.55;;
72156;SDS011;60035;52.122;5.406;2023-09-07T13:15:09;7.70;;;3.50;;
72156;SDS011;60035;52.122;5.406;2023-09-07T13:17:36;6.00;;;3.33;;
72156;SDS011;60035;52.122;5.406;2023-09-07T13:20:03;6.38;;;3.63;;
72156;SDS011;60035;52.122;5.406;2023-09-07T13:22:30;6.88;;;3.50;;
72156;SDS011;60035;52.122;5.406;2023-09-07T13:24:56;6.97;;;4.00;;
72156;SDS011;60035;52.122;5.406;2023-09-07T13:27:23;8.10;;;3.63;;
72156;SDS011;60035;52.122;5.406;2023-09-07T13:29:52;7.85;;;3.95;;
72156;SDS011;60035;52.122;5.406;2023-09-07T13:32:18;9.07;;;3.80;;
72156;SDS011;60035;52.122;5.406;2023-09-07T13:34:45;7.43;;;3.58;;
72156;SDS011;60035;52.122;5.406;2023-09-07T13:37:11;6.43;;;3.50;;
72156;SDS011;60035;52.122;5.406;2023-09-07T13:39:38;7.43;;;3.50;;
72156;SDS011;60035;52.122;5.406;2023-09-07T13:42:04;6.85;;;3.60;;
72156;SDS011;60035;52.122;5.406;2023-09-07T13:44:31;5.55;;;3.20;;
72156;SDS011;60035;52.122;5.406;2023-09-07T13:46:57;7.03;;;3.40;;
72156;SDS011;60035;52.122;5.406;2023-09-07T13:49:24;9.63;;;3.90;;
72156;SDS011;60035;52.122;5.406;2023-09-07T13:51:51;6.90;;;3.28;;
72156;SDS011;60035;52.122;5.406;2023-09-07T13:54:18;6.57;;;3.65;;
72156;SDS011;60035;52.122;5.406;2023-09-07T13:56:44;6.70;;;3.17;;
72156;SDS011;60035;52.122;5.406;2023-09-07T13:59:13;6.25;;;3.25;;
72156;SDS011;60035;52.122;5.406;2023-09-07T14:01:39;6.88;;;3.45;;
72156;SDS011;60035;52.122;5.406;2023-09-07T14:04:06;7.35;;;3.45;;
72156;SDS011;60035;52.122;5.406;2023-09-07T14:06:33;7.32;;;3.40;;
72156;SDS011;60035;52.122;5.406;2023-09-07T14:08:59;8.65;;;3.75;;
72156;SDS011;60035;52.122;5.406;2023-09-07T14:11:26;6.78;;;3.65;;
72156;SDS011;60035;52.122;5.406;2023-09-07T14:13:52;6.05;;;3.80;;
72156;SDS011;60035;52.122;5.406;2023-09-07T14:16:21;7.75;;;3.67;;
72156;SDS011;60035;52.122;5.406;2023-09-07T14:18:47;6.10;;;3.72;;
72156;SDS011;60035;52.122;5.406;2023-09-07T14:21:14;7.22;;;3.88;;
72156;SDS011;60035;52.122;5.406;2023-09-07T14:23:42;6.40;;;3.40;;
72156;SDS011;60035;52.122;5.406;2023-09-07T14:26:09;7.68;;;3.60;;
72156;SDS011;60035;52.122;5.406;2023-09-07T14:28:36;7.38;;;3.58;;
72156;SDS011;60035;52.122;5.406;2023-09-07T14:31:04;7.35;;;3.92;;
72156;SDS011;60035;52.122;5.406;2023-09-07T14:33:33;6.68;;;3.70;;
72156;SDS011;60035;52.122;5.406;2023-09-07T14:36:03;6.30;;;3.50;;
72156;SDS011;60035;52.122;5.406;2023-09-07T14:38:29;7.18;;;3.90;;
72156;SDS011;60035;52.122;5.406;2023-09-07T14:40:57;8.50;;;3.53;;
72156;SDS011;60035;52.122;5.406;2023-09-07T14:43:23;6.55;;;3.83;;
72156;SDS011;60035;52.122;5.406;2023-09-07T14:45:50;7.03;;;4.07;;
72156;SDS011;60035;52.122;5.406;2023-09-07T14:48:16;6.68;;;3.80;;